sensor_id;sensor_type;location;lat;lon;timestamp;P1;durP1;ratioP1;P2;durP2;ratioP2
75426;SDS011;64007;50.632;13.700;2023-05-07T00:01:56;10.80;;;4.65;;
75426;SDS011;64007;50.632;13.700;2023-05-07T00:04:22;7.03;;;4.03;;
75426;SDS011;64007;50.632;13.700;2023-05-07T00:06:47;6.47;;;3.70;;
75426;SDS011;64007;50.632;13.700;2023-05-07T00:09:13;6.82;;;4.28;;
75426;SDS011;64007;50.632;13.700;2023-05-07T00:11:39;8.63;;;4.47;;
75426;SDS011;64007;50.632;13.700;2023-05-07T00:14:06;7.97;;;4.10;;
75426;SDS011;64007;50.632;13.700;2023-05-07T00:16:31;7.75;;;4.32;;
75426;SDS011;64007;50.632;13.700;2023-05-07T00:18:57;10.00;;;4.55;;
75426;SDS011;64007;50.632;13.700;2023-05-07T00:21:23;8.10;;;4.15;;
75426;SDS011;64007;50.632;13.700;2023-05-07T00:23:54;13.18;;;4.38;;
75426;SDS011;64007;50.632;13.700;2023-05-07T00:26:20;12.05;;;4.30;;
75426;SDS011;64007;50.632;13.700;2023-05-07T00:28:46;8.20;;;4.10;;
75426;SDS011;64007;50.632;13.700;2023-05-07T00:31:11;9.20;;;4.80;;
75426;SDS011;64007;50.632;13.700;2023-05-07T00:33:38;10.95;;;4.70;;
75426;SDS011;64007;50.632;13.700;2023-05-07T00:36:04;7.00;;;4.18;;
75426;SDS011;64007;50.632;13.700;2023-05-07T00:38:30;6.40;;;4.15;;
75426;SDS011;64007;50.632;13.700;2023-05-07T00:40:56;8.18;;;4.28;;
75426;SDS011;64007;50.632;13.700;2023-05-07T00:43:21;10.60;;;4.72;;
75426;SDS011;64007;50.632;13.700;2023-05-07T00:45:47;8.07;;;4.13;;
75426;SDS011;64007;50.632;13.700;2023-05-07T00:48:13;8.90;;;4.30;;
75426;SDS011;64007;50.632;13.700;2023-05-07T00:50:39;7.38;;;4.43;;
75426;SDS011;64007;50.632;13.700;2023-05-07T00:53:06;7.30;;;4.20;;
75426;SDS011;64007;50.632;13.700;2023-05-07T00:55:32;8.63;;;4.35;;
75426;SDS011;64007;50.632;13.700;2023-05-07T00:57:58;8.77;;;4.53;;
75426;SDS011;64007;50.632;13.700;2023-05-07T01:00:24;7.45;;;4.40;;
75426;SDS011;64007;50.632;13.700;2023-05-07T01:02:50;6.40;;;3.90;;
75426;SDS011;64007;50.632;13.700;2023-05-07T01:05:17;9.82;;;4.50;;
75426;SDS011;64007;50.632;13.700;2023-05-07T01:07:45;9.05;;;4.63;;
75426;SDS011;64007;50.632;13.700;2023-05-07T01:10:12;7.97;;;4.28;;
75426;SDS011;64007;50.632;13.700;2023-05-07T01:12:38;6.45;;;4.20;;
75426;SDS011;64007;50.632;13.700;2023-05-07T01:15:05;6.82;;;4.10;;
75426;SDS011;64007;50.632;13.700;2023-05-07T01:17:33;7.75;;;4.18;;
75426;SDS011;64007;50.632;13.700;2023-05-07T01:20:00;7.70;;;4.43;;
75426;SDS011;64007;50.632;13.700;2023-05-07T01:22:32;9.50;;;5.00;;
75426;SDS011;64007;50.632;13.700;2023-05-07T01:25:00;9.93;;;4.35;;
75426;SDS011;64007;50.632;13.700;2023-05-07T01:27:27;8.68;;;4.50;;
75426;SDS011;64007;50.632;13.700;2023-05-07T01:29:53;9.77;;;4.88;;
75426;SDS011;64007;50.632;13.700;2023-05-07T01:32:21;8.43;;;4.90;;
75426;SDS011;64007;50.632;13.700;2023-05-07T01:34:54;8.30;;;4.88;;
75426;SDS011;64007;50.632;13.700;2023-05-07T01:37:21;9.07;;;4.68;;
75426;SDS011;64007;50.632;13.700;2023-05-07T01:39:47;8.80;;;4.97;;
75426;SDS011;64007;50.632;13.700;2023-05-07T01:42:13;8.25;;;4.40;;
75426;SDS011;64007;50.632;13.700;2023-05-07T01:44:39;8.35;;;4.60;;
75426;SDS011;64007;50.632;13.700;2023-05-07T01:47:05;7.57;;;4.40;;
75426;SDS011;64007;50.632;13.700;2023-05-07T01:49:31;7.57;;;4.30;;
75426;SDS011;64007;50.632;13.700;2023-05-07T01:51:57;7.53;;;4.15;;
75426;SDS011;64007;50.632;13.700;2023-05-07T01:54:27;6.20;;;3.80;;
75426;SDS011;64007;50.632;13.700;2023-05-07T01:56:55;6.78;;;3.63;;
75426;SDS011;64007;50.632;13.700;2023-05-07T01:59:21;7.43;;;4.07;;
75426;SDS011;64007;50.632;13.700;2023-05-07T02:01:47;10.55;;;3.97;;
75426;SDS011;64007;50.632;13.700;2023-05-07T02:04:13;7.32;;;3.92;;
75426;SDS011;64007;50.632;13.700;2023-05-07T02:06:39;7.82;;;3.70;;
75426;SDS011;64007;50.632;13.700;2023-05-07T02:09:04;7.30;;;3.92;;
75426;SDS011;64007;50.632;13.700;2023-05-07T02:11:30;5.85;;;3.72;;
75426;SDS011;64007;50.632;13.700;2023-05-07T02:13:56;5.55;;;3.85;;
75426;SDS011;64007;50.632;13.700;2023-05-07T02:16:21;6.15;;;3.50;;
75426;SDS011;64007;50.632;13.700;2023-05-07T02:18:48;7.10;;;3.70;;
75426;SDS011;64007;50.632;13.700;2023-05-07T02:21:14;6.97;;;3.40;;
75426;SDS011;64007;50.632;13.700;2023-05-07T02:23:39;5.07;;;3.05;;
75426;SDS011;64007;50.632;13.700;2023-05-07T02:26:05;8.60;;;3.50;;
75426;SDS011;64007;50.632;13.700;2023-05-07T02:28:31;7.20;;;3.58;;
75426;SDS011;64007;50.632;13.700;2023-05-07T02:30:57;6.45;;;3.58;;
75426;SDS011;64007;50.632;13.700;2023-05-07T02:33:25;6.20;;;3.58;;
75426;SDS011;64007;50.632;13.700;2023-05-07T02:35:51;7.70;;;4.07;;
75426;SDS011;64007;50.632;13.700;2023-05-07T02:38:17;4.72;;;2.97;;
75426;SDS011;64007;50.632;13.700;2023-05-07T02:40:43;7.70;;;3.28;;
75426;SDS011;64007;50.632;13.700;2023-05-07T02:43:09;5.53;;;3.50;;
75426;SDS011;64007;50.632;13.700;2023-05-07T02:45:35;4.85;;;2.85;;
75426;SDS011;64007;50.632;13.700;2023-05-07T02:48:02;4.45;;;3.10;;
75426;SDS011;64007;50.632;13.700;2023-05-07T02:50:29;5.88;;;3.30;;
75426;SDS011;64007;50.632;13.700;2023-05-07T02:52:54;5.03;;;2.75;;
75426;SDS011;64007;50.632;13.700;2023-05-07T02:55:21;6.43;;;3.17;;
75426;SDS011;64007;50.632;13.700;2023-05-07T02:57:46;5.18;;;3.58;;
75426;SDS011;64007;50.632;13.700;2023-05-07T03:00:13;6.55;;;3.35;;
75426;SDS011;64007;50.632;13.700;2023-05-07T03:02:40;7.38;;;3.35;;
75426;SDS011;64007;50.632;13.700;2023-05-07T03:05:06;5.03;;;2.80;;
75426;SDS011;64007;50.632;13.700;2023-05-07T03:07:32;5.68;;;2.95;;
75426;SDS011;64007;50.632;13.700;2023-05-07T03:09:58;4.55;;;3.20;;
75426;SDS011;64007;50.632;13.700;2023-05-07T03:12:23;4.68;;;3.05;;
75426;SDS011;64007;50.632;13.700;2023-05-07T03:14:49;4.03;;;2.80;;
75426;SDS011;64007;50.632;13.700;2023-05-07T03:17:14;4.70;;;2.92;;
75426;SDS011;64007;50.632;13.700;2023-05-07T03:19:41;3.92;;;2.83;;
75426;SDS011;64007;50.632;13.700;2023-05-07T03:22:07;4.47;;;2.88;;
75426;SDS011;64007;50.632;13.700;2023-05-07T03:24:33;4.50;;;2.67;;
75426;SDS011;64007;50.632;13.700;2023-05-07T03:26:58;4.65;;;2.70;;
75426;SDS011;64007;50.632;13.700;2023-05-07T03:29:24;4.70;;;2.30;;
75426;SDS011;64007;50.632;13.700;2023-05-07T03:31:50;5.20;;;2.95;;
75426;SDS011;64007;50.632;13.700;2023-05-07T03:34:16;4.22;;;2.80;;
75426;SDS011;64007;50.632;13.700;2023-05-07T03:36:47;3.75;;;2.45;;
75426;SDS011;64007;50.632;13.700;2023-05-07T03:39:14;4.18;;;2.90;;
75426;SDS011;64007;50.632;13.700;2023-05-07T03:41:39;5.55;;;2.55;;
75426;SDS011;64007;50.632;13.700;2023-05-07T03:44:05;6.80;;;2.53;;
75426;SDS011;64007;50.632;13.700;2023-05-07T03:46:31;4.47;;;3.08;;
75426;SDS011;64007;50.632;13.700;2023-05-07T03:48:58;4.05;;;2.78;;
75426;SDS011;64007;50.632;13.700;2023-05-07T03:51:23;5.75;;;3.47;;
75426;SDS011;64007;50.632;13.700;2023-05-07T03:53:49;3.92;;;2.63;;
75426;SDS011;64007;50.632;13.700;2023-05-07T03:56:17;4.20;;;2.85;;
75426;SDS011;64007;50.632;13.700;2023-05-07T03:58:44;4.32;;;2.85;;
75426;SDS011;64007;50.632;13.700;2023-05-07T04:01:10;4.60;;;3.00;;
75426;SDS011;64007;50.632;13.700;2023-05-07T04:03:36;4.30;;;2.67;;
75426;SDS011;64007;50.632;13.700;2023-05-07T04:06:01;3.58;;;2.20;;
75426;SDS011;64007;50.632;13.700;2023-05-07T04:08:27;3.90;;;2.50;;
75426;SDS011;64007;50.632;13.700;2023-05-07T04:10:56;8.48;;;2.50;;
75426;SDS011;64007;50.632;13.700;2023-05-07T04:13:23;5.68;;;2.88;;
75426;SDS011;64007;50.632;13.700;2023-05-07T04:15:50;4.15;;;2.67;;
75426;SDS011;64007;50.632;13.700;2023-05-07T04:18:17;5.40;;;2.85;;
75426;SDS011;64007;50.632;13.700;2023-05-07T04:20:42;4.13;;;2.55;;
75426;SDS011;64007;50.632;13.700;2023-05-07T04:23:08;4.68;;;2.90;;
75426;SDS011;64007;50.632;13.700;2023-05-07T04:25:34;4.25;;;2.92;;
75426;SDS011;64007;50.632;13.700;2023-05-07T04:28:00;4.82;;;2.97;;
75426;SDS011;64007;50.632;13.700;2023-05-07T04:30:25;4.28;;;2.92;;
75426;SDS011;64007;50.632;13.700;2023-05-07T04:32:52;5.15;;;3.15;;
75426;SDS011;64007;50.632;13.700;2023-05-07T04:35:18;4.50;;;2.97;;
75426;SDS011;64007;50.632;13.700;2023-05-07T04:37:44;4.45;;;2.80;;
75426;SDS011;64007;50.632;13.700;2023-05-07T04:40:09;5.28;;;3.00;;
75426;SDS011;64007;50.632;13.700;2023-05-07T04:42:35;4.75;;;2.92;;
75426;SDS011;64007;50.632;13.700;2023-05-07T04:45:01;4.57;;;2.95;;
75426;SDS011;64007;50.632;13.700;2023-05-07T04:47:27;5.93;;;2.88;;
75426;SDS011;64007;50.632;13.700;2023-05-07T04:49:53;4.80;;;2.72;;
75426;SDS011;64007;50.632;13.700;2023-05-07T04:52:19;4.53;;;3.10;;
75426;SDS011;64007;50.632;13.700;2023-05-07T04:54:45;5.32;;;3.10;;
75426;SDS011;64007;50.632;13.700;2023-05-07T04:57:11;4.78;;;3.22;;
75426;SDS011;64007;50.632;13.700;2023-05-07T04:59:36;6.40;;;3.60;;
75426;SDS011;64007;50.632;13.700;2023-05-07T05:02:02;6.30;;;3.78;;
75426;SDS011;64007;50.632;13.700;2023-05-07T05:04:29;5.10;;;3.55;;
75426;SDS011;64007;50.632;13.700;2023-05-07T05:06:55;7.15;;;4.18;;
75426;SDS011;64007;50.632;13.700;2023-05-07T05:09:21;6.80;;;3.95;;
75426;SDS011;64007;50.632;13.700;2023-05-07T05:11:47;6.05;;;3.92;;
75426;SDS011;64007;50.632;13.700;2023-05-07T05:14:12;6.82;;;4.00;;
75426;SDS011;64007;50.632;13.700;2023-05-07T05:16:38;6.50;;;4.10;;
75426;SDS011;64007;50.632;13.700;2023-05-07T05:19:04;8.00;;;4.07;;
75426;SDS011;64007;50.632;13.700;2023-05-07T05:21:30;6.32;;;3.55;;
75426;SDS011;64007;50.632;13.700;2023-05-07T05:23:57;6.30;;;3.95;;
75426;SDS011;64007;50.632;13.700;2023-05-07T05:26:23;6.65;;;4.07;;
75426;SDS011;64007;50.632;13.700;2023-05-07T05:28:49;8.82;;;3.58;;
75426;SDS011;64007;50.632;13.700;2023-05-07T05:31:16;7.35;;;3.72;;
75426;SDS011;64007;50.632;13.700;2023-05-07T05:33:41;5.43;;;3.28;;
75426;SDS011;64007;50.632;13.700;2023-05-07T05:36:10;6.30;;;3.78;;
75426;SDS011;64007;50.632;13.700;2023-05-07T05:38:38;6.20;;;3.45;;
75426;SDS011;64007;50.632;13.700;2023-05-07T05:41:05;7.13;;;3.63;;
75426;SDS011;64007;50.632;13.700;2023-05-07T05:43:30;7.47;;;3.67;;
75426;SDS011;64007;50.632;13.700;2023-05-07T05:45:56;6.15;;;3.75;;
75426;SDS011;64007;50.632;13.700;2023-05-07T05:48:22;6.72;;;4.07;;
75426;SDS011;64007;50.632;13.700;2023-05-07T05:50:48;6.28;;;4.13;;
75426;SDS011;64007;50.632;13.700;2023-05-07T05:53:14;6.32;;;4.45;;
75426;SDS011;64007;50.632;13.700;2023-05-07T05:55:41;7.35;;;4.63;;
75426;SDS011;64007;50.632;13.700;2023-05-07T05:58:07;8.10;;;4.50;;
75426;SDS011;64007;50.632;13.700;2023-05-07T06:00:33;6.82;;;4.30;;
75426;SDS011;64007;50.632;13.700;2023-05-07T06:02:58;8.10;;;4.25;;
75426;SDS011;64007;50.632;13.700;2023-05-07T06:05:24;6.80;;;4.65;;
75426;SDS011;64007;50.632;13.700;2023-05-07T06:07:50;7.60;;;4.82;;
75426;SDS011;64007;50.632;13.700;2023-05-07T06:10:16;6.38;;;4.15;;
75426;SDS011;64007;50.632;13.700;2023-05-07T06:12:41;7.03;;;3.85;;
75426;SDS011;64007;50.632;13.700;2023-05-07T06:15:07;6.80;;;4.10;;
75426;SDS011;64007;50.632;13.700;2023-05-07T06:17:33;6.75;;;3.97;;
75426;SDS011;64007;50.632;13.700;2023-05-07T06:19:59;7.15;;;4.07;;
75426;SDS011;64007;50.632;13.700;2023-05-07T06:22:25;7.07;;;4.03;;
75426;SDS011;64007;50.632;13.700;2023-05-07T06:24:50;7.78;;;3.60;;
75426;SDS011;64007;50.632;13.700;2023-05-07T06:27:16;4.93;;;3.13;;
75426;SDS011;64007;50.632;13.700;2023-05-07T06:29:42;5.50;;;3.38;;
75426;SDS011;64007;50.632;13.700;2023-05-07T06:34:37;4.93;;;2.95;;
75426;SDS011;64007;50.632;13.700;2023-05-07T06:37:04;3.92;;;2.75;;
75426;SDS011;64007;50.632;13.700;2023-05-07T06:39:30;4.53;;;2.65;;
75426;SDS011;64007;50.632;13.700;2023-05-07T06:41:56;3.10;;;2.22;;
75426;SDS011;64007;50.632;13.700;2023-05-07T06:44:22;4.10;;;2.33;;
75426;SDS011;64007;50.632;13.700;2023-05-07T06:46:48;3.28;;;1.90;;
75426;SDS011;64007;50.632;13.700;2023-05-07T06:49:14;2.60;;;1.83;;
75426;SDS011;64007;50.632;13.700;2023-05-07T06:51:39;2.97;;;2.00;;
75426;SDS011;64007;50.632;13.700;2023-05-07T06:54:05;2.83;;;1.98;;
75426;SDS011;64007;50.632;13.700;2023-05-07T06:56:32;4.07;;;2.28;;
75426;SDS011;64007;50.632;13.700;2023-05-07T06:58:59;3.47;;;1.85;;
75426;SDS011;64007;50.632;13.700;2023-05-07T07:01:25;3.42;;;1.95;;
75426;SDS011;64007;50.632;13.700;2023-05-07T07:03:51;3.05;;;1.83;;
75426;SDS011;64007;50.632;13.700;2023-05-07T07:06:17;2.70;;;1.70;;
75426;SDS011;64007;50.632;13.700;2023-05-07T07:08:43;3.67;;;1.88;;
75426;SDS011;64007;50.632;13.700;2023-05-07T07:11:09;3.25;;;2.45;;
75426;SDS011;64007;50.632;13.700;2023-05-07T07:13:35;3.13;;;2.13;;
75426;SDS011;64007;50.632;13.700;2023-05-07T07:16:01;3.80;;;2.30;;
75426;SDS011;64007;50.632;13.700;2023-05-07T07:18:27;3.17;;;2.15;;
75426;SDS011;64007;50.632;13.700;2023-05-07T07:20:52;4.05;;;2.10;;
75426;SDS011;64007;50.632;13.700;2023-05-07T07:23:19;3.17;;;2.03;;
75426;SDS011;64007;50.632;13.700;2023-05-07T07:25:44;3.20;;;2.40;;
75426;SDS011;64007;50.632;13.700;2023-05-07T07:28:10;2.80;;;2.00;;
75426;SDS011;64007;50.632;13.700;2023-05-07T07:30:36;4.00;;;2.65;;
75426;SDS011;64007;50.632;13.700;2023-05-07T07:33:04;3.08;;;1.80;;
75426;SDS011;64007;50.632;13.700;2023-05-07T07:35:30;3.38;;;2.20;;
75426;SDS011;64007;50.632;13.700;2023-05-07T07:37:57;3.65;;;2.10;;
75426;SDS011;64007;50.632;13.700;2023-05-07T07:40:23;2.65;;;1.90;;
75426;SDS011;64007;50.632;13.700;2023-05-07T07:42:50;3.40;;;2.42;;
75426;SDS011;64007;50.632;13.700;2023-05-07T07:45:16;3.42;;;2.13;;
75426;SDS011;64007;50.632;13.700;2023-05-07T07:47:42;2.90;;;2.00;;
75426;SDS011;64007;50.632;13.700;2023-05-07T07:50:08;2.58;;;1.92;;
75426;SDS011;64007;50.632;13.700;2023-05-07T07:52:35;3.40;;;2.30;;
75426;SDS011;64007;50.632;13.700;2023-05-07T07:55:01;3.55;;;2.25;;
75426;SDS011;64007;50.632;13.700;2023-05-07T07:57:27;3.22;;;2.20;;
75426;SDS011;64007;50.632;13.700;2023-05-07T07:59:53;3.95;;;2.10;;
75426;SDS011;64007;50.632;13.700;2023-05-07T08:02:18;3.15;;;2.30;;
75426;SDS011;64007;50.632;13.700;2023-05-07T08:04:44;3.03;;;2.03;;
75426;SDS011;64007;50.632;13.700;2023-05-07T08:07:10;3.13;;;2.03;;
75426;SDS011;64007;50.632;13.700;2023-05-07T08:09:39;2.47;;;1.90;;
75426;SDS011;64007;50.632;13.700;2023-05-07T08:12:06;3.92;;;2.10;;
75426;SDS011;64007;50.632;13.700;2023-05-07T08:14:33;4.63;;;1.95;;
75426;SDS011;64007;50.632;13.700;2023-05-07T08:16:59;3.90;;;2.42;;
75426;SDS011;64007;50.632;13.700;2023-05-07T08:19:25;3.30;;;2.10;;
75426;SDS011;64007;50.632;13.700;2023-05-07T08:21:50;5.28;;;1.95;;
75426;SDS011;64007;50.632;13.700;2023-05-07T08:24:16;3.08;;;1.80;;
75426;SDS011;64007;50.632;13.700;2023-05-07T08:26:43;5.28;;;1.95;;
75426;SDS011;64007;50.632;13.700;2023-05-07T08:29:09;3.35;;;2.15;;
75426;SDS011;64007;50.632;13.700;2023-05-07T08:31:36;3.10;;;2.20;;
75426;SDS011;64007;50.632;13.700;2023-05-07T08:34:03;2.78;;;1.95;;
75426;SDS011;64007;50.632;13.700;2023-05-07T08:36:30;2.88;;;2.10;;
75426;SDS011;64007;50.632;13.700;2023-05-07T08:38:56;2.90;;;2.00;;
75426;SDS011;64007;50.632;13.700;2023-05-07T08:41:22;3.90;;;1.92;;
75426;SDS011;64007;50.632;13.700;2023-05-07T08:43:48;3.10;;;2.20;;
75426;SDS011;64007;50.632;13.700;2023-05-07T08:46:19;3.67;;;2.25;;
75426;SDS011;64007;50.632;13.700;2023-05-07T08:48:49;3.63;;;2.40;;
75426;SDS011;64007;50.632;13.700;2023-05-07T08:51:16;3.78;;;2.40;;
75426;SDS011;64007;50.632;13.700;2023-05-07T08:53:45;3.47;;;2.75;;
75426;SDS011;64007;50.632;13.700;2023-05-07T08:56:14;4.22;;;2.75;;
75426;SDS011;64007;50.632;13.700;2023-05-07T08:58:45;3.15;;;1.90;;
75426;SDS011;64007;50.632;13.700;2023-05-07T09:01:15;3.05;;;2.10;;
75426;SDS011;64007;50.632;13.700;2023-05-07T09:03:44;4.38;;;2.55;;
75426;SDS011;64007;50.632;13.700;2023-05-07T09:06:11;8.05;;;2.70;;
75426;SDS011;64007;50.632;13.700;2023-05-07T09:08:36;4.30;;;2.40;;
75426;SDS011;64007;50.632;13.700;2023-05-07T09:11:02;3.78;;;2.47;;
75426;SDS011;64007;50.632;13.700;2023-05-07T09:13:28;4.63;;;2.90;;
75426;SDS011;64007;50.632;13.700;2023-05-07T09:15:55;3.55;;;2.55;;
75426;SDS011;64007;50.632;13.700;2023-05-07T09:18:21;4.50;;;2.53;;
75426;SDS011;64007;50.632;13.700;2023-05-07T09:20:48;3.15;;;2.00;;
75426;SDS011;64007;50.632;13.700;2023-05-07T09:23:14;3.80;;;2.20;;
75426;SDS011;64007;50.632;13.700;2023-05-07T09:25:40;2.72;;;2.30;;
75426;SDS011;64007;50.632;13.700;2023-05-07T09:28:06;3.22;;;2.60;;
75426;SDS011;64007;50.632;13.700;2023-05-07T09:30:33;5.18;;;2.85;;
75426;SDS011;64007;50.632;13.700;2023-05-07T09:33:00;4.78;;;3.25;;
75426;SDS011;64007;50.632;13.700;2023-05-07T09:35:27;5.43;;;3.13;;
75426;SDS011;64007;50.632;13.700;2023-05-07T09:37:53;5.25;;;2.88;;
75426;SDS011;64007;50.632;13.700;2023-05-07T09:40:21;4.45;;;3.17;;
75426;SDS011;64007;50.632;13.700;2023-05-07T09:42:48;4.28;;;2.95;;
75426;SDS011;64007;50.632;13.700;2023-05-07T09:45:36;3.60;;;2.33;;
75426;SDS011;64007;50.632;13.700;2023-05-07T09:48:01;3.08;;;2.40;;
75426;SDS011;64007;50.632;13.700;2023-05-07T09:50:40;4.90;;;2.83;;
75426;SDS011;64007;50.632;13.700;2023-05-07T09:53:14;4.50;;;2.90;;
75426;SDS011;64007;50.632;13.700;2023-05-07T09:55:43;3.35;;;2.22;;
75426;SDS011;64007;50.632;13.700;2023-05-07T09:58:09;4.32;;;2.65;;
75426;SDS011;64007;50.632;13.700;2023-05-07T10:00:37;3.40;;;2.42;;
75426;SDS011;64007;50.632;13.700;2023-05-07T10:03:05;4.50;;;2.45;;
75426;SDS011;64007;50.632;13.700;2023-05-07T10:05:31;3.47;;;2.15;;
75426;SDS011;64007;50.632;13.700;2023-05-07T10:07:57;2.95;;;1.98;;
75426;SDS011;64007;50.632;13.700;2023-05-07T10:10:24;6.53;;;2.10;;
75426;SDS011;64007;50.632;13.700;2023-05-07T10:12:50;3.53;;;2.20;;
75426;SDS011;64007;50.632;13.700;2023-05-07T10:15:16;3.25;;;2.35;;
75426;SDS011;64007;50.632;13.700;2023-05-07T10:17:43;3.70;;;2.20;;
75426;SDS011;64007;50.632;13.700;2023-05-07T10:20:09;2.85;;;2.20;;
75426;SDS011;64007;50.632;13.700;2023-05-07T10:22:39;3.05;;;2.03;;
75426;SDS011;64007;50.632;13.700;2023-05-07T10:25:41;2.45;;;1.65;;
75426;SDS011;64007;50.632;13.700;2023-05-07T10:28:04;2.70;;;2.00;;
75426;SDS011;64007;50.632;13.700;2023-05-07T10:33:16;2.45;;;2.00;;
75426;SDS011;64007;50.632;13.700;2023-05-07T10:35:47;2.35;;;1.83;;
75426;SDS011;64007;50.632;13.700;2023-05-07T10:38:13;2.60;;;1.90;;
75426;SDS011;64007;50.632;13.700;2023-05-07T10:40:39;2.70;;;1.83;;
75426;SDS011;64007;50.632;13.700;2023-05-07T10:43:05;2.53;;;1.80;;
75426;SDS011;64007;50.632;13.700;2023-05-07T10:45:32;4.32;;;2.10;;
75426;SDS011;64007;50.632;13.700;2023-05-07T10:48:07;2.90;;;2.00;;
75426;SDS011;64007;50.632;13.700;2023-05-07T10:50:37;3.13;;;2.30;;
75426;SDS011;64007;50.632;13.700;2023-05-07T10:55:51;3.83;;;2.00;;
75426;SDS011;64007;50.632;13.700;2023-05-07T10:58:37;3.03;;;2.38;;
75426;SDS011;64007;50.632;13.700;2023-05-07T11:01:03;3.30;;;2.05;;
75426;SDS011;64007;50.632;13.700;2023-05-07T11:03:29;2.50;;;2.00;;
75426;SDS011;64007;50.632;13.700;2023-05-07T11:06:11;2.38;;;2.00;;
75426;SDS011;64007;50.632;13.700;2023-05-07T11:11:16;2.97;;;2.10;;
75426;SDS011;64007;50.632;13.700;2023-05-07T11:16:20;2.85;;;2.00;;
75426;SDS011;64007;50.632;13.700;2023-05-07T11:18:51;2.60;;;2.08;;
75426;SDS011;64007;50.632;13.700;2023-05-07T11:21:36;4.82;;;2.47;;
75426;SDS011;64007;50.632;13.700;2023-05-07T11:24:03;3.20;;;2.47;;
75426;SDS011;64007;50.632;13.700;2023-05-07T11:26:40;3.17;;;2.50;;
75426;SDS011;64007;50.632;13.700;2023-05-07T11:29:12;3.28;;;2.58;;
75426;SDS011;64007;50.632;13.700;2023-05-07T11:31:40;2.40;;;2.10;;
75426;SDS011;64007;50.632;13.700;2023-05-07T11:34:06;2.88;;;2.50;;
75426;SDS011;64007;50.632;13.700;2023-05-07T11:36:33;2.88;;;2.38;;
75426;SDS011;64007;50.632;13.700;2023-05-07T11:38:59;3.80;;;2.40;;
75426;SDS011;64007;50.632;13.700;2023-05-07T11:41:34;2.47;;;2.00;;
75426;SDS011;64007;50.632;13.700;2023-05-07T11:44:01;3.47;;;2.20;;
75426;SDS011;64007;50.632;13.700;2023-05-07T11:46:28;3.70;;;2.45;;
75426;SDS011;64007;50.632;13.700;2023-05-07T11:48:54;3.22;;;2.80;;
75426;SDS011;64007;50.632;13.700;2023-05-07T11:51:22;4.40;;;2.72;;
75426;SDS011;64007;50.632;13.700;2023-05-07T11:53:49;3.00;;;2.20;;
75426;SDS011;64007;50.632;13.700;2023-05-07T11:56:16;3.97;;;2.70;;
75426;SDS011;64007;50.632;13.700;2023-05-07T11:58:43;4.70;;;2.75;;
75426;SDS011;64007;50.632;13.700;2023-05-07T12:01:10;4.40;;;2.70;;
75426;SDS011;64007;50.632;13.700;2023-05-07T12:03:37;2.67;;;2.35;;
75426;SDS011;64007;50.632;13.700;2023-05-07T12:06:09;3.20;;;2.60;;
75426;SDS011;64007;50.632;13.700;2023-05-07T12:08:37;3.55;;;2.80;;
75426;SDS011;64007;50.632;13.700;2023-05-07T12:11:03;3.35;;;2.70;;
75426;SDS011;64007;50.632;13.700;2023-05-07T12:13:33;3.13;;;2.45;;
75426;SDS011;64007;50.632;13.700;2023-05-07T12:15:59;3.15;;;2.40;;
75426;SDS011;64007;50.632;13.700;2023-05-07T12:18:28;4.78;;;2.42;;
75426;SDS011;64007;50.632;13.700;2023-05-07T12:20:54;3.33;;;2.65;;
75426;SDS011;64007;50.632;13.700;2023-05-07T12:23:19;3.72;;;2.95;;
75426;SDS011;64007;50.632;13.700;2023-05-07T12:25:46;4.32;;;2.60;;
75426;SDS011;64007;50.632;13.700;2023-05-07T12:28:18;3.78;;;2.67;;
75426;SDS011;64007;50.632;13.700;2023-05-07T12:30:46;3.70;;;2.70;;
75426;SDS011;64007;50.632;13.700;2023-05-07T12:33:16;2.83;;;2.40;;
75426;SDS011;64007;50.632;13.700;2023-05-07T12:35:43;3.17;;;2.60;;
75426;SDS011;64007;50.632;13.700;2023-05-07T12:38:13;3.83;;;2.67;;
75426;SDS011;64007;50.632;13.700;2023-05-07T12:40:41;4.55;;;2.47;;
75426;SDS011;64007;50.632;13.700;2023-05-07T12:43:14;3.30;;;2.50;;
75426;SDS011;64007;50.632;13.700;2023-05-07T12:45:42;4.35;;;2.22;;
75426;SDS011;64007;50.632;13.700;2023-05-07T12:48:09;3.80;;;2.67;;
75426;SDS011;64007;50.632;13.700;2023-05-07T12:50:36;3.45;;;2.33;;
75426;SDS011;64007;50.632;13.700;2023-05-07T12:53:05;4.82;;;2.75;;
75426;SDS011;64007;50.632;13.700;2023-05-07T12:58:19;3.22;;;2.70;;
75426;SDS011;64007;50.632;13.700;2023-05-07T13:00:49;4.93;;;2.63;;
75426;SDS011;64007;50.632;13.700;2023-05-07T13:05:52;3.33;;;2.70;;
75426;SDS011;64007;50.632;13.700;2023-05-07T13:08:24;4.07;;;2.85;;
75426;SDS011;64007;50.632;13.700;2023-05-07T13:10:50;3.42;;;2.40;;
75426;SDS011;64007;50.632;13.700;2023-05-07T13:13:16;3.55;;;2.58;;
75426;SDS011;64007;50.632;13.700;2023-05-07T13:15:42;2.70;;;2.00;;
75426;SDS011;64007;50.632;13.700;2023-05-07T13:18:09;3.13;;;2.60;;
75426;SDS011;64007;50.632;13.700;2023-05-07T13:20:36;4.25;;;2.85;;
75426;SDS011;64007;50.632;13.700;2023-05-07T13:23:02;3.95;;;2.90;;
75426;SDS011;64007;50.632;13.700;2023-05-07T13:25:30;3.25;;;2.67;;
75426;SDS011;64007;50.632;13.700;2023-05-07T13:27:59;4.20;;;2.45;;
75426;SDS011;64007;50.632;13.700;2023-05-07T13:30:25;3.20;;;2.53;;
75426;SDS011;64007;50.632;13.700;2023-05-07T13:32:51;3.90;;;2.80;;
75426;SDS011;64007;50.632;13.700;2023-05-07T13:35:20;4.50;;;2.60;;
75426;SDS011;64007;50.632;13.700;2023-05-07T13:37:46;5.75;;;2.00;;
75426;SDS011;64007;50.632;13.700;2023-05-07T13:40:13;3.53;;;2.33;;
75426;SDS011;64007;50.632;13.700;2023-05-07T13:42:39;3.05;;;2.55;;
75426;SDS011;64007;50.632;13.700;2023-05-07T13:45:05;4.00;;;2.42;;
75426;SDS011;64007;50.632;13.700;2023-05-07T13:47:31;5.22;;;2.60;;
75426;SDS011;64007;50.632;13.700;2023-05-07T13:49:57;5.80;;;2.55;;
75426;SDS011;64007;50.632;13.700;2023-05-07T13:52:22;4.28;;;2.63;;
75426;SDS011;64007;50.632;13.700;2023-05-07T13:54:48;3.33;;;2.58;;
75426;SDS011;64007;50.632;13.700;2023-05-07T13:57:15;4.22;;;3.00;;
75426;SDS011;64007;50.632;13.700;2023-05-07T13:59:42;4.40;;;3.00;;
75426;SDS011;64007;50.632;13.700;2023-05-07T14:02:07;5.40;;;3.60;;
75426;SDS011;64007;50.632;13.700;2023-05-07T14:04:34;4.45;;;2.95;;
75426;SDS011;64007;50.632;13.700;2023-05-07T14:07:00;4.72;;;3.15;;
75426;SDS011;64007;50.632;13.700;2023-05-07T14:09:26;6.72;;;3.05;;
75426;SDS011;64007;50.632;13.700;2023-05-07T14:11:51;11.05;;;3.63;;
75426;SDS011;64007;50.632;13.700;2023-05-07T14:14:18;5.57;;;3.53;;
75426;SDS011;64007;50.632;13.700;2023-05-07T14:16:44;4.45;;;3.55;;
75426;SDS011;64007;50.632;13.700;2023-05-07T14:19:10;4.68;;;3.10;;
75426;SDS011;64007;50.632;13.700;2023-05-07T14:21:37;5.20;;;3.45;;
75426;SDS011;64007;50.632;13.700;2023-05-07T14:24:02;3.25;;;2.63;;
75426;SDS011;64007;50.632;13.700;2023-05-07T14:26:28;6.07;;;3.15;;
75426;SDS011;64007;50.632;13.700;2023-05-07T14:28:54;5.93;;;3.47;;
75426;SDS011;64007;50.632;13.700;2023-05-07T14:31:29;4.45;;;3.15;;
75426;SDS011;64007;50.632;13.700;2023-05-07T14:34:01;4.80;;;3.38;;
75426;SDS011;64007;50.632;13.700;2023-05-07T14:36:29;4.63;;;3.30;;
75426;SDS011;64007;50.632;13.700;2023-05-07T14:39:04;4.72;;;3.50;;
75426;SDS011;64007;50.632;13.700;2023-05-07T14:41:30;8.20;;;3.80;;
75426;SDS011;64007;50.632;13.700;2023-05-07T14:43:58;5.57;;;3.95;;
75426;SDS011;64007;50.632;13.700;2023-05-07T14:46:24;4.85;;;3.42;;
75426;SDS011;64007;50.632;13.700;2023-05-07T14:48:50;4.45;;;3.58;;
75426;SDS011;64007;50.632;13.700;2023-05-07T14:51:16;8.90;;;3.97;;